Airfield :
LOGIN :

Register | Disclaimer

   EN    FR    IT 

 










Legend :    VFR   Marginal VFR   IFR   Intensive IFR   Very Intensive IFR
Visi :
Ceiling :
>= 8 km
>= 3000ft
5 to 8 km
1000 to 3000 ft
1500m to 5 km
500 to 1000 ft
800 to 1500m
200 to 500 ft
< 800m
< 200 ft
Symbols :   Thunderstorms  Fog  Heavy snow  Heavy precipitations  Wind > 20 kt
SIGMETs :     Misc.  Thunderstorms  Icing  Turbulence  Mountain Waves  Volcanic Ashes







- Airport Elevation : 297 ft
- IATA code : UIP
- Download approach charts


LFRQ - Quimper Pluguffan

CURRENT METAR :
  • 250400Z AUTO 22008KT 180V250 9999 -RA BKN027/// BKN039/// BKN062/// ///TCU 09/06 Q0993

EXPIRED METARs :
  • 250330Z AUTO 20006KT 9999 FEW027/// SCT039/// BKN058/// ///TCU 09/06 Q0992
  • 250300Z AUTO 21009KT 170V230 9999 FEW024/// SCT048/// ///CB 09/06 Q0992
  • 250230Z AUTO 19007KT 9999 FEW029/// SCT068/// ///CB 08/07 Q0992
  • 250200Z AUTO 19007KT 160V220 9999 ///TCU 08/06 Q0992
  • 250130Z AUTO 21008KT 9999 FEW028/// BKN056/// BKN066/// ///TCU 09/07 Q0992

TAF TAF LFRQ
Valid from the 24 at 18:00 until the 25 at 18:00 UTC


241700Z 2418/2518 17016KT 9999 BKN029
TEMPO 2418/2514 20020G30KT -SHRA BKN016TCU
PROB30
TEMPO 2418/2514 3000 TSRAGS SCT015CB
No reported NOTAMs for that airfield.



MET'MAP, your aeronautical weather chart ! - Copyright ORBIFLY December 2007 - Disclaimer

ORBIFLY MET'MAP TEAM :

Programming & Development : Alexandra Zaïnal
Concept & Development : Baudouin d'Aumeries
Co-Development & Prog : Marc-Olivier Méhu
Technical & hardware support : Manuel Goepfert

Contact : metmap@orbifly.com




SOURCES & CREDITS :

   NOAA